createdAt,value
2022-12-17T00:02:42.051Z,71.07
2022-12-17T00:05:27.763Z,70.50
2022-12-17T00:08:19.021Z,71.11
2022-12-17T00:11:04.310Z,70.73
2022-12-17T00:13:49.572Z,70.81
2022-12-17T00:16:35.193Z,70.66
2022-12-17T00:19:20.273Z,70.96
2022-12-17T00:22:05.429Z,71.15
2022-12-17T00:24:50.526Z,71.24
2022-12-17T00:27:35.823Z,71.03
2022-12-17T00:30:20.794Z,70.91
2022-12-17T00:33:05.956Z,70.94
2022-12-17T00:35:51.148Z,71.12
2022-12-17T00:38:37.460Z,71.69
2022-12-17T00:41:23.170Z,71.28
2022-12-17T00:44:08.402Z,71.14
2022-12-17T00:46:54.438Z,70.92
2022-12-17T00:49:41.201Z,70.96
2022-12-17T00:52:26.375Z,71.82
2022-12-17T00:55:11.736Z,71.45
2022-12-17T00:57:57.174Z,71.67
2022-12-17T01:00:42.455Z,71.41
2022-12-17T01:03:30.667Z,71.57
2022-12-17T01:06:20.977Z,71.71
2022-12-17T01:09:06.307Z,71.71
2022-12-17T01:11:51.518Z,71.69
2022-12-17T01:14:37.188Z,71.84
2022-12-17T01:17:22.477Z,71.75
2022-12-17T01:20:08.113Z,71.99
2022-12-17T01:22:53.225Z,71.83
2022-12-17T01:25:41.964Z,71.74
2022-12-17T01:28:27.170Z,72.07
2022-12-17T01:31:15.745Z,72.78
2022-12-17T01:34:01.302Z,72.43
2022-12-17T01:36:48.330Z,72.10
2022-12-17T01:39:33.289Z,72.28
2022-12-17T01:42:18.207Z,72.21
2022-12-17T01:45:13.902Z,71.70
2022-12-17T01:48:07.245Z,71.84
2022-12-17T01:51:04.960Z,71.96
2022-12-17T01:53:54.792Z,71.87
2022-12-17T01:56:45.019Z,72.27
2022-12-17T01:59:32.026Z,72.22
2022-12-17T02:02:17.389Z,72.35
2022-12-17T02:05:02.898Z,72.06
2022-12-17T02:07:57.320Z,72.20
2022-12-17T02:10:53.131Z,72.48
2022-12-17T02:13:51.012Z,72.57
2022-12-17T02:16:42.236Z,72.87
2022-12-17T02:19:42.795Z,72.99
2022-12-17T02:22:41.103Z,73.09
2022-12-17T02:25:49.242Z,72.66
2022-12-17T02:28:34.862Z,72.82
2022-12-17T02:31:21.163Z,73.48
2022-12-17T02:34:07.200Z,73.39
2022-12-17T02:36:54.216Z,73.26
2022-12-17T02:39:39.628Z,73.00
2022-12-17T02:42:26.267Z,73.04
2022-12-17T02:45:14.014Z,73.10
2022-12-17T02:47:59.413Z,73.00
2022-12-17T02:50:44.934Z,79.09
2022-12-17T02:53:31.900Z,72.77
2022-12-17T02:56:17.443Z,72.32
2022-12-17T02:59:02.743Z,72.31
2022-12-17T03:01:48.178Z,72.10
2022-12-17T03:04:33.215Z,72.13
2022-12-17T03:07:18.370Z,71.82
2022-12-17T03:10:03.631Z,72.27
2022-12-17T03:12:51.011Z,71.99
2022-12-17T03:15:36.205Z,71.86
2022-12-17T03:18:21.520Z,71.65
2022-12-17T03:21:10.724Z,71.83
2022-12-17T03:23:55.923Z,71.69
2022-12-17T03:26:41.369Z,71.66
2022-12-17T03:29:26.630Z,71.60
2022-12-17T03:32:11.874Z,72.04
2022-12-17T03:34:57.124Z,71.71
2022-12-17T03:37:42.406Z,71.68
2022-12-17T03:40:28.351Z,71.84
2022-12-17T03:43:13.508Z,71.92
2022-12-17T03:45:58.969Z,71.51
2022-12-17T03:48:44.235Z,71.40
2022-12-17T03:51:29.433Z,71.65
2022-12-17T03:54:14.778Z,71.89
2022-12-17T03:57:19.799Z,71.92
2022-12-17T04:00:04.924Z,72.14
2022-12-17T04:02:57.698Z,71.99
2022-12-17T04:05:42.948Z,72.34
2022-12-17T04:08:28.155Z,72.52
2022-12-17T04:11:13.613Z,73.11
2022-12-17T04:13:58.863Z,73.30
2022-12-17T04:16:44.157Z,73.44
2022-12-17T04:19:29.178Z,73.58
2022-12-17T04:22:14.396Z,73.61
2022-12-17T04:24:59.713Z,73.62
2022-12-17T04:27:44.861Z,73.85
2022-12-17T04:30:30.211Z,73.52
2022-12-17T04:33:15.388Z,73.57
2022-12-17T04:36:00.648Z,74.01
2022-12-17T04:38:45.937Z,74.24
2022-12-17T04:41:31.160Z,74.14
2022-12-17T04:44:16.138Z,73.74
2022-12-17T04:47:02.539Z,73.98
2022-12-17T04:49:47.791Z,73.92
2022-12-17T04:52:33.031Z,74.07
2022-12-17T04:55:18.355Z,74.06
2022-12-17T04:58:03.750Z,74.31
2022-12-17T05:00:48.956Z,74.85
2022-12-17T05:03:35.199Z,75.32
2022-12-17T05:06:21.123Z,75.34
2022-12-17T05:09:13.858Z,75.42
2022-12-17T05:11:58.721Z,75.34
2022-12-17T05:14:43.847Z,75.19
2022-12-17T05:17:28.747Z,75.03
2022-12-17T05:20:13.988Z,74.82
2022-12-17T05:22:59.179Z,74.74
2022-12-17T05:25:44.444Z,74.61
2022-12-17T05:28:29.763Z,74.78
2022-12-17T05:31:15.955Z,74.59
2022-12-17T05:34:01.216Z,74.57
2022-12-17T05:36:50.972Z,74.43
2022-12-17T05:39:35.875Z,74.66
2022-12-17T05:42:20.855Z,74.76
2022-12-17T05:45:05.989Z,74.82
2022-12-17T05:47:51.301Z,75.07
2022-12-17T05:50:36.407Z,74.92
2022-12-17T05:53:23.577Z,74.54
2022-12-17T05:56:12.451Z,74.46
2022-12-17T05:58:58.710Z,74.73
2022-12-17T06:01:43.946Z,74.66
2022-12-17T06:04:29.993Z,75.15
2022-12-17T06:07:15.110Z,75.09
2022-12-17T06:10:00.308Z,75.26
2022-12-17T06:12:45.681Z,75.99
2022-12-17T06:15:30.905Z,76.44
2022-12-17T06:18:17.445Z,76.34
2022-12-17T06:21:03.891Z,76.43
2022-12-17T06:23:49.131Z,76.82
2022-12-17T06:26:34.511Z,76.81
2022-12-17T06:29:19.772Z,76.98
2022-12-17T06:32:05.009Z,76.74
2022-12-17T06:34:50.459Z,77.34
2022-12-17T06:37:35.787Z,77.46
2022-12-17T06:40:21.039Z,77.76
2022-12-17T06:43:14.511Z,77.88
2022-12-17T06:46:00.020Z,78.19
2022-12-17T06:48:45.252Z,78.36
2022-12-17T06:51:30.319Z,78.19
2022-12-17T06:54:15.562Z,78.43
2022-12-17T06:57:00.845Z,78.67
2022-12-17T06:59:46.663Z,78.87
2022-12-17T07:02:32.081Z,79.24
2022-12-17T07:05:17.600Z,79.26
2022-12-17T07:08:03.002Z,79.10
2022-12-17T07:10:48.242Z,78.99
2022-12-17T07:13:33.670Z,78.79
2022-12-17T07:16:19.306Z,78.80
2022-12-17T07:19:04.790Z,78.75
2022-12-17T07:21:50.051Z,78.57
2022-12-17T07:24:35.304Z,78.17
2022-12-17T07:27:20.359Z,77.64
2022-12-17T07:30:22.556Z,77.36
2022-12-17T07:33:19.796Z,77.43
2022-12-17T07:36:05.077Z,77.44
2022-12-17T07:38:50.674Z,77.82
2022-12-17T07:41:35.932Z,77.83
2022-12-17T07:44:24.075Z,78.08
2022-12-17T07:47:09.347Z,78.68
2022-12-17T07:49:54.966Z,78.72
2022-12-17T07:52:40.388Z,82.32
2022-12-17T07:55:25.674Z,83.19
2022-12-17T07:58:20.114Z,82.82
2022-12-17T08:01:06.029Z,81.11
2022-12-17T08:03:51.328Z,79.94
2022-12-17T08:06:36.625Z,79.07
2022-12-17T08:09:22.314Z,80.65
2022-12-17T08:12:07.585Z,80.52
2022-12-17T08:14:52.854Z,79.41
2022-12-17T08:17:38.107Z,79.03
2022-12-17T08:20:24.194Z,79.76
2022-12-17T08:23:09.454Z,80.05
2022-12-17T08:25:54.725Z,79.29
2022-12-17T08:28:50.532Z,79.54
2022-12-17T08:31:36.338Z,80.26
2022-12-17T08:34:21.888Z,80.52
2022-12-17T08:37:07.104Z,81.22
2022-12-17T08:39:52.578Z,81.63
2022-12-17T08:42:37.899Z,82.27
2022-12-17T08:45:23.658Z,82.50
2022-12-17T08:48:09.000Z,82.59
2022-12-17T08:50:54.336Z,82.49
2022-12-17T08:53:40.092Z,82.64
2022-12-17T08:56:25.405Z,82.50
2022-12-17T08:59:10.775Z,82.26
2022-12-17T09:01:56.154Z,82.07
2022-12-17T09:04:41.123Z,82.01
2022-12-17T09:07:26.246Z,82.01
2022-12-17T09:10:11.326Z,81.81
2022-12-17T09:13:01.137Z,81.56
2022-12-17T09:15:51.338Z,80.79
2022-12-17T09:18:38.623Z,80.92
2022-12-17T09:21:25.339Z,80.49
2022-12-17T09:24:24.328Z,80.96
2022-12-17T09:27:09.774Z,81.18
2022-12-17T09:29:54.959Z,81.48
2022-12-17T09:32:40.151Z,81.34
2022-12-17T09:35:25.320Z,81.86
2022-12-17T09:38:15.172Z,82.82
2022-12-17T09:41:06.129Z,83.56
2022-12-17T09:44:17.878Z,84.39
2022-12-17T09:47:17.040Z,85.00
2022-12-17T09:50:02.842Z,85.25
2022-12-17T09:52:53.148Z,85.11
2022-12-17T09:55:50.589Z,84.61
2022-12-17T09:58:40.872Z,84.46
2022-12-17T10:01:35.974Z,84.06
2022-12-17T10:04:23.532Z,83.77
2022-12-17T10:07:08.902Z,83.34
2022-12-17T10:09:54.706Z,83.30
2022-12-17T10:12:42.385Z,83.44
2022-12-17T10:15:33.300Z,83.08
2022-12-17T10:18:25.750Z,83.09
2022-12-17T10:21:16.579Z,82.88
2022-12-17T10:24:18.781Z,82.95
2022-12-17T10:27:07.532Z,82.34
2022-12-17T10:29:52.988Z,82.60
2022-12-17T10:32:44.283Z,82.48
2022-12-17T10:35:54.493Z,81.91
2022-12-17T10:38:44.405Z,81.83
2022-12-17T10:41:59.642Z,81.47
2022-12-17T10:44:56.005Z,81.31
2022-12-17T10:47:44.354Z,81.18
2022-12-17T10:50:35.531Z,81.24
2022-12-17T10:53:22.704Z,80.91
2022-12-17T10:56:13.652Z,80.99
2022-12-17T10:59:03.737Z,80.22
2022-12-17T11:01:49.638Z,80.37
2022-12-17T11:05:08.027Z,80.33
2022-12-17T11:07:58.746Z,80.50
2022-12-17T11:10:48.643Z,80.42
2022-12-17T11:13:58.536Z,80.77
2022-12-17T11:16:48.223Z,80.84
2022-12-17T11:19:55.243Z,80.68
2022-12-17T11:22:52.404Z,80.71
2022-12-17T11:25:54.396Z,80.45
2022-12-17T11:28:43.216Z,80.43
2022-12-17T11:32:07.648Z,80.41
2022-12-17T11:35:21.906Z,80.52
2022-12-17T11:38:48.626Z,80.16
2022-12-17T11:41:41.503Z,79.31
2022-12-17T11:44:37.284Z,79.36
2022-12-17T11:47:37.401Z,79.31
2022-12-17T11:50:43.815Z,79.03
2022-12-17T11:53:41.115Z,78.61
2022-12-17T11:56:51.239Z,78.77
2022-12-17T12:00:04.262Z,78.23
2022-12-17T12:03:17.006Z,77.67
2022-12-17T12:06:19.905Z,76.34
2022-12-17T12:09:10.862Z,76.35
2022-12-17T12:12:07.327Z,76.50
2022-12-17T12:15:12.586Z,76.40
2022-12-17T12:18:18.756Z,76.55
2022-12-17T12:21:34.462Z,75.43
2022-12-17T12:24:53.832Z,75.66
2022-12-17T12:27:45.097Z,75.59
2022-12-17T12:30:36.718Z,75.42
2022-12-17T12:33:46.902Z,74.44
2022-12-17T12:36:36.157Z,74.40
2022-12-17T12:39:21.747Z,74.36
2022-12-17T12:42:10.155Z,74.50
2022-12-17T12:45:09.964Z,74.55
2022-12-17T12:48:01.620Z,74.44
2022-12-17T12:51:13.519Z,73.93
2022-12-17T12:53:58.466Z,73.44
2022-12-17T12:56:52.444Z,73.23
2022-12-17T12:59:55.745Z,73.42
2022-12-17T13:02:50.821Z,72.99
2022-12-17T13:05:35.432Z,72.91
2022-12-17T13:08:08.025Z,72.74
2022-12-17T13:10:36.183Z,72.50
2022-12-17T13:13:16.331Z,72.38
2022-12-17T13:15:48.078Z,72.47
2022-12-17T13:18:33.381Z,72.26
2022-12-17T13:21:06.024Z,72.40
2022-12-17T13:23:35.769Z,72.67
2022-12-17T13:26:21.725Z,72.31
2022-12-17T13:28:59.055Z,71.59
2022-12-17T13:31:28.965Z,70.98
2022-12-17T13:34:10.548Z,71.09
2022-12-17T13:36:51.667Z,71.36
2022-12-17T13:39:49.980Z,71.18
2022-12-17T13:42:30.141Z,70.82
2022-12-17T13:44:58.488Z,70.50
2022-12-17T13:47:28.464Z,70.35
2022-12-17T13:50:32.291Z,69.98
2022-12-17T13:52:46.335Z,70.26
2022-12-17T13:55:27.323Z,69.80
2022-12-17T13:57:54.270Z,69.55
2022-12-17T14:00:29.954Z,69.65
2022-12-17T14:02:56.777Z,69.90
2022-12-17T14:05:33.261Z,69.83
2022-12-17T14:08:02.590Z,69.60
2022-12-17T14:10:29.926Z,69.29
2022-12-17T14:13:16.156Z,69.16
2022-12-17T14:15:49.921Z,68.92
2022-12-17T14:18:20.730Z,69.39
2022-12-17T14:20:49.456Z,69.51
2022-12-17T14:23:29.119Z,69.66
2022-12-17T14:25:57.104Z,70.04
2022-12-17T14:28:36.117Z,70.13
2022-12-17T14:34:08.523Z,70.02
2022-12-17T14:36:37.784Z,70.24
2022-12-17T14:39:24.819Z,69.95
2022-12-17T14:42:10.795Z,70.28
2022-12-17T14:44:49.230Z,70.49
2022-12-17T14:47:25.563Z,70.50
2022-12-17T14:49:56.746Z,70.60
2022-12-17T14:52:43.937Z,70.75
2022-12-17T14:55:32.704Z,70.55
2022-12-17T14:58:11.575Z,70.53
2022-12-17T15:00:40.379Z,70.39
2022-12-17T15:03:11.479Z,70.36
2022-12-17T15:05:38.254Z,70.49
2022-12-17T15:08:05.667Z,70.39
2022-12-17T15:10:32.362Z,70.65
2022-12-17T15:12:59.115Z,70.75
2022-12-17T15:15:25.747Z,70.69
2022-12-17T15:17:53.230Z,70.92
2022-12-17T15:20:21.082Z,70.73
2022-12-17T15:22:48.124Z,70.91
2022-12-17T15:25:17.808Z,70.93
2022-12-17T15:27:45.376Z,71.19
2022-12-17T15:30:17.560Z,71.25
2022-12-17T15:32:45.054Z,71.29
2022-12-17T15:35:13.355Z,71.26
2022-12-17T15:37:40.667Z,71.41
2022-12-17T15:40:08.198Z,71.25
2022-12-17T15:42:53.261Z,71.61
2022-12-17T15:45:19.988Z,71.80
2022-12-17T15:47:46.715Z,71.62
2022-12-17T15:50:13.445Z,71.71
2022-12-17T15:52:40.080Z,71.65
2022-12-17T15:55:07.039Z,71.80
2022-12-17T15:57:33.731Z,71.87
2022-12-17T16:00:00.356Z,71.93
2022-12-17T16:02:27.138Z,72.17
2022-12-17T16:04:53.992Z,72.03
2022-12-17T16:07:20.698Z,72.05
2022-12-17T16:09:47.539Z,72.21
2022-12-17T16:12:14.518Z,72.24
2022-12-17T16:14:41.288Z,72.50
2022-12-17T16:17:07.972Z,72.91
2022-12-17T16:19:34.726Z,73.07
2022-12-17T16:22:01.431Z,72.97
2022-12-17T16:24:28.101Z,72.92
2022-12-17T16:26:57.182Z,72.95
2022-12-17T16:29:27.677Z,73.01
2022-12-17T16:31:54.361Z,73.09
2022-12-17T16:34:21.055Z,73.12
2022-12-17T16:36:47.671Z,73.35
2022-12-17T16:39:19.195Z,73.42
2022-12-17T16:41:46.301Z,73.62
2022-12-17T16:44:13.200Z,73.82
2022-12-17T16:46:41.889Z,73.83
2022-12-17T16:49:13.263Z,73.77
2022-12-17T16:51:40.633Z,73.83
2022-12-17T16:54:18.863Z,74.02
2022-12-17T16:56:46.207Z,74.19
2022-12-17T16:59:14.495Z,74.10
2022-12-17T17:01:44.796Z,74.17
2022-12-17T17:04:14.203Z,74.33
2022-12-17T17:06:45.210Z,74.30
2022-12-17T17:09:13.130Z,74.39
2022-12-17T17:11:39.939Z,74.29
2022-12-17T17:14:07.691Z,74.47
2022-12-17T17:16:34.831Z,74.45
2022-12-17T17:19:03.721Z,74.57
2022-12-17T17:21:36.146Z,74.58
2022-12-17T17:24:08.270Z,74.68
2022-12-17T17:26:34.860Z,74.70
2022-12-17T17:29:02.071Z,74.88
2022-12-17T17:32:01.238Z,74.99
2022-12-17T17:34:15.938Z,75.21
2022-12-17T17:36:42.878Z,75.31
2022-12-17T17:39:09.684Z,75.46
2022-12-17T17:41:37.020Z,75.27
2022-12-17T17:44:08.950Z,75.34
2022-12-17T17:46:36.225Z,75.34
2022-12-17T17:49:04.891Z,75.26
2022-12-17T17:52:07.832Z,75.97
2022-12-17T17:54:21.613Z,75.45
2022-12-17T17:56:48.409Z,74.90
2022-12-17T17:59:20.193Z,74.92
2022-12-17T18:01:49.705Z,74.96
2022-12-17T18:04:24.029Z,75.07
2022-12-17T18:07:16.458Z,75.44
2022-12-17T18:09:37.468Z,75.49
2022-12-17T18:12:24.333Z,75.50
2022-12-17T18:15:13.594Z,75.47
2022-12-17T18:17:37.878Z,75.49
2022-12-17T18:20:05.089Z,75.56
2022-12-17T18:22:31.779Z,75.50
2022-12-17T18:24:58.432Z,75.56
2022-12-17T18:27:25.165Z,75.70
2022-12-17T18:29:51.850Z,75.91
2022-12-17T18:32:18.576Z,76.30
2022-12-17T18:34:45.183Z,76.22
2022-12-17T18:37:11.866Z,76.19
2022-12-17T18:39:38.681Z,76.22
2022-12-17T18:42:24.056Z,76.97
2022-12-17T18:44:50.743Z,76.80
2022-12-17T18:47:18.799Z,76.87
2022-12-17T18:49:45.568Z,76.88
2022-12-17T18:52:16.647Z,76.96
2022-12-17T18:54:43.898Z,77.19
2022-12-17T18:57:10.953Z,76.89
2022-12-17T18:59:38.559Z,77.22
2022-12-17T19:02:05.331Z,77.41
2022-12-17T19:04:33.219Z,77.58
2022-12-17T19:07:00.140Z,77.66
2022-12-17T19:09:34.437Z,77.59
2022-12-17T19:12:01.658Z,77.78
2022-12-17T19:14:28.331Z,77.65
2022-12-17T19:16:57.897Z,77.71
2022-12-17T19:19:25.659Z,77.43
2022-12-17T19:21:55.036Z,77.45
2022-12-17T19:24:22.894Z,77.85
2022-12-17T19:26:50.457Z,77.71
2022-12-17T19:29:18.597Z,77.96
2022-12-17T19:31:45.775Z,77.94
2022-12-17T19:34:15.111Z,77.92
2022-12-17T19:36:42.667Z,77.84
2022-12-17T19:39:22.203Z,77.74
2022-12-17T19:41:51.807Z,77.73
2022-12-17T19:44:20.589Z,77.61
2022-12-17T19:46:48.081Z,77.61
2022-12-17T19:49:16.322Z,77.74
2022-12-17T19:51:44.508Z,77.81
2022-12-17T19:54:13.062Z,77.71
2022-12-17T19:56:39.790Z,77.82
2022-12-17T19:59:08.172Z,77.73
2022-12-17T20:01:38.164Z,77.81
2022-12-17T20:04:05.868Z,77.92
2022-12-17T20:06:34.616Z,77.96
2022-12-17T20:09:02.482Z,78.05
2022-12-17T20:11:35.523Z,78.47
2022-12-17T20:14:13.249Z,78.45
2022-12-17T20:16:45.944Z,78.47
2022-12-17T20:19:15.944Z,78.43
2022-12-17T20:21:42.806Z,78.68
2022-12-17T20:24:11.213Z,78.69
2022-12-17T20:26:40.362Z,78.84
2022-12-17T20:29:07.603Z,78.80
2022-12-17T20:31:35.298Z,79.54
2022-12-17T20:34:03.685Z,79.56
2022-12-17T20:36:30.830Z,79.51
2022-12-17T20:38:57.547Z,79.68
2022-12-17T20:41:27.687Z,79.74
2022-12-17T20:43:55.563Z,79.61
2022-12-17T20:46:23.640Z,80.21
2022-12-17T20:48:52.188Z,80.06
2022-12-17T20:51:21.976Z,79.71
2022-12-17T20:53:50.838Z,79.84
2022-12-17T20:56:20.195Z,79.68
2022-12-17T20:58:47.382Z,79.64
2022-12-17T21:01:18.735Z,79.58
2022-12-17T21:03:46.865Z,79.91
2022-12-17T21:06:16.223Z,80.23
2022-12-17T21:08:49.272Z,80.18
2022-12-17T21:11:18.553Z,80.46
2022-12-17T21:13:45.695Z,80.15
2022-12-17T21:16:16.023Z,80.22
2022-12-17T21:18:43.267Z,79.99
2022-12-17T21:21:17.107Z,80.01
2022-12-17T21:23:45.246Z,80.00
2022-12-17T21:26:13.792Z,79.98
2022-12-17T21:28:42.462Z,80.14
2022-12-17T21:31:22.061Z,80.50
2022-12-17T21:33:50.281Z,80.81
2022-12-17T21:36:19.831Z,80.86
2022-12-17T21:38:47.153Z,80.85
2022-12-17T21:41:20.679Z,80.30
2022-12-17T21:43:47.723Z,80.15
2022-12-17T21:46:14.625Z,79.84
2022-12-17T21:48:42.718Z,79.86
2022-12-17T21:51:11.493Z,79.87
2022-12-17T21:53:42.387Z,79.91
2022-12-17T21:56:12.925Z,79.93
2022-12-17T21:58:40.926Z,79.74
2022-12-17T22:01:24.921Z,79.32
2022-12-17T22:03:54.465Z,79.06
2022-12-17T22:06:28.956Z,79.01
2022-12-17T22:09:08.190Z,78.72
2022-12-17T22:11:45.088Z,78.74
2022-12-17T22:14:18.968Z,78.95
2022-12-17T22:16:49.465Z,79.09
2022-12-17T22:19:23.202Z,79.53
2022-12-17T22:21:56.379Z,79.61
2022-12-17T22:24:25.499Z,80.19
2022-12-17T22:26:59.545Z,80.67
2022-12-17T22:29:46.373Z,80.36
2022-12-17T22:32:31.528Z,80.57
2022-12-17T22:36:23.072Z,80.85
2022-12-17T22:41:11.186Z,81.22
2022-12-17T22:44:10.253Z,82.39
2022-12-17T22:44:46.299Z,82.45
2022-12-17T22:46:16.374Z,82.79
2022-12-17T22:48:43.059Z,83.31
2022-12-17T22:51:12.453Z,82.98
2022-12-17T22:53:42.199Z,83.05
2022-12-17T22:56:21.373Z,83.08
2022-12-17T22:58:56.848Z,82.48
2022-12-17T23:01:24.232Z,82.33
2022-12-17T23:03:57.822Z,82.89
2022-12-17T23:06:24.811Z,82.84
2022-12-17T23:08:51.584Z,83.10
2022-12-17T23:11:26.739Z,83.05
2022-12-17T23:13:53.999Z,83.06
2022-12-17T23:16:20.998Z,82.63
2022-12-17T23:18:49.581Z,82.42
2022-12-17T23:21:19.363Z,82.24
2022-12-17T23:23:46.597Z,81.81
2022-12-17T23:26:16.839Z,81.89
2022-12-17T23:28:44.735Z,81.69
2022-12-17T23:31:14.087Z,81.90
2022-12-17T23:33:42.324Z,82.08
2022-12-17T23:36:17.817Z,81.79
2022-12-17T23:38:44.676Z,81.62
2022-12-17T23:41:14.276Z,81.47
2022-12-17T23:43:45.090Z,81.68
2022-12-17T23:46:12.777Z,81.18
2022-12-17T23:48:45.372Z,80.83
2022-12-17T23:51:18.313Z,80.68
2022-12-17T23:53:45.411Z,80.30
2022-12-17T23:56:15.260Z,79.92
2022-12-17T23:58:43.165Z,79.90
